KBZN

Bozeman Yellowstone International Airport

Bozeman, Montana, USA
METAR KBZN 241956Z 25015KT 10SM CLR M02/M13 A2974 RMK AO2 SLP117 T10171128
Observed Flight Rules
Feb-24 @ 19:56 UTC (16 minutes ago) Visual Flight Rules
Wind Visibility Clouds
250° at 15 knots 10 miles
  • Clear skies
Temperatures Readings
Current -2°C / 28°F
Dewpoint -13°C / 9°F
Humidity 43%
Altimeter 29.74" Hg
Pressure 1011.7 hPa
Elevation 1361
METAR KBZN 241956Z 25015KT 10SM CLR M02/M13 A2974 RMK AO2 SLP117 T10171128
Observed Flight Rules
Feb-24 @ 19:56 UTC
(16 minutes ago)
VFR
Wind Visibility
250° at 15 knots 10 miles
Clouds
  • Clear skies
Temperature Dewpoint
-2°C / 28°F -13°C / 9°F
Humidity Altimeter Pressure
43% 29.74" Hg 1011.7 hPa